createdAt,value
2018-01-22T00:01:42.704Z,9.27
2018-01-22T00:04:10.967Z,8.37
2018-01-22T00:06:39.231Z,5.97
2018-01-22T00:09:09.061Z,6.67
2018-01-22T00:11:38.678Z,9.70
2018-01-22T00:14:08.125Z,7.93
2018-01-22T00:16:36.290Z,7.80
2018-01-22T00:19:05.281Z,7.90
2018-01-22T00:21:33.519Z,7.20
2018-01-22T00:24:01.778Z,8.17
2018-01-22T00:26:30.116Z,11.17
2018-01-22T00:28:58.375Z,9.50
2018-01-22T00:31:26.632Z,7.17
2018-01-22T00:33:54.861Z,10.17
2018-01-22T00:36:24.466Z,15.53
2018-01-22T00:38:53.967Z,12.47
2018-01-22T00:41:23.224Z,13.20
2018-01-22T00:43:51.466Z,17.07
2018-01-22T00:46:19.732Z,12.60
2018-01-22T00:48:48.732Z,16.37
2018-01-22T00:51:16.978Z,19.97
2018-01-22T00:53:45.272Z,19.57
2018-01-22T00:56:14.890Z,14.70
2018-01-22T00:58:43.027Z,20.33
2018-01-22T01:01:11.317Z,17.63
2018-01-22T01:03:39.557Z,19.67
2018-01-22T01:06:07.792Z,22.50
2018-01-22T01:08:37.440Z,24.57
2018-01-22T01:11:07.105Z,21.60
2018-01-22T01:13:36.682Z,22.07
2018-01-22T01:16:04.816Z,15.20
2018-01-22T01:18:33.072Z,21.87
2018-01-22T01:21:01.301Z,23.60
2018-01-22T01:23:30.328Z,18.70
2018-01-22T01:25:59.332Z,22.43
2018-01-22T01:28:28.340Z,15.60
2018-01-22T01:30:57.904Z,17.67
2018-01-22T01:33:26.904Z,24.43
2018-01-22T01:35:56.487Z,24.93
2018-01-22T01:40:59.663Z,23.73
2018-01-22T01:43:27.991Z,27.63
2018-01-22T01:45:56.215Z,19.53
2018-01-22T01:48:25.795Z,23.67
2018-01-22T01:50:53.945Z,24.90
2018-01-22T01:53:22.939Z,23.33
2018-01-22T01:55:52.329Z,21.07
2018-01-22T01:58:21.425Z,26.53
2018-01-22T02:00:50.068Z,28.33
2018-01-22T02:03:19.432Z,32.80
2018-01-22T02:05:48.464Z,28.33
2018-01-22T02:08:17.478Z,25.13
2018-01-22T02:10:46.840Z,15.87
2018-01-22T02:13:16.652Z,19.60
2018-01-22T02:15:46.248Z,22.40
2018-01-22T02:18:14.760Z,24.77
2018-01-22T02:20:43.044Z,31.50
2018-01-22T02:23:11.300Z,35.23
2018-01-22T02:25:39.576Z,18.90
2018-01-22T02:28:07.858Z,21.27
2018-01-22T02:30:36.092Z,30.63
2018-01-22T02:33:05.833Z,24.03
2018-01-22T02:35:35.451Z,18.50
2018-01-22T02:38:04.328Z,18.27
2018-01-22T02:40:32.560Z,24.00
2018-01-22T02:43:00.864Z,19.87
2018-01-22T02:45:29.122Z,25.30
2018-01-22T02:47:58.148Z,43.70
2018-01-22T02:50:26.423Z,22.77
2018-01-22T02:52:54.656Z,26.67
2018-01-22T02:55:22.892Z,18.60
2018-01-22T02:57:52.702Z,23.43
2018-01-22T03:00:20.932Z,22.67
2018-01-22T03:02:50.519Z,22.00
2018-01-22T03:05:19.855Z,24.63
2018-01-22T03:07:48.088Z,25.87
2018-01-22T03:10:17.088Z,26.70
2018-01-22T03:12:45.762Z,33.57
2018-01-22T03:15:14.420Z,27.90
2018-01-22T03:20:44.152Z,11.80
2018-01-22T03:23:12.396Z,18.17
2018-01-22T03:25:41.780Z,18.43
2018-01-22T03:28:10.129Z,7.60
2018-01-22T03:30:40.702Z,9.80
2018-01-22T03:33:10.117Z,11.50
2018-01-22T03:35:38.432Z,12.50
2018-01-22T03:38:07.074Z,18.63
2018-01-22T03:40:36.647Z,6.60
2018-01-22T03:43:04.790Z,7.60
2018-01-22T03:45:33.780Z,7.83
2018-01-22T03:48:02.070Z,10.17
2018-01-22T03:50:31.622Z,10.37
2018-01-22T03:52:59.760Z,9.07
2018-01-22T03:55:27.996Z,7.97
2018-01-22T03:57:56.520Z,9.20
2018-01-22T04:00:25.891Z,8.83
2018-01-22T04:02:54.168Z,9.73
2018-01-22T04:05:23.546Z,10.43
2018-01-22T04:07:51.790Z,15.20
2018-01-22T04:10:20.070Z,12.03
2018-01-22T04:12:49.808Z,15.67
2018-01-22T04:15:18.075Z,16.03
2018-01-22T04:17:46.356Z,19.80
2018-01-22T04:20:14.604Z,14.17
2018-01-22T04:22:42.854Z,16.70
2018-01-22T04:25:12.661Z,18.43
2018-01-22T04:27:40.916Z,17.77
2018-01-22T04:30:09.180Z,24.57
2018-01-22T04:32:39.429Z,24.27
2018-01-22T04:35:09.193Z,26.83
2018-01-22T04:37:37.424Z,23.20
2018-01-22T04:40:06.472Z,27.27
2018-01-22T04:42:36.063Z,24.83
2018-01-22T04:45:04.177Z,19.00
2018-01-22T04:47:32.436Z,16.73
2018-01-22T04:50:00.668Z,13.20
2018-01-22T04:52:28.926Z,15.63
2018-01-22T04:54:57.968Z,23.40
2018-01-22T04:57:26.204Z,25.10
2018-01-22T04:59:54.436Z,20.67
2018-01-22T05:02:24.219Z,16.77
2018-01-22T05:04:52.447Z,16.13
2018-01-22T05:07:22.187Z,14.87
2018-01-22T05:09:50.469Z,18.97
2018-01-22T05:12:18.714Z,19.63
2018-01-22T05:14:46.969Z,14.50
2018-01-22T05:17:16.016Z,11.37
2018-01-22T05:19:45.387Z,11.97
2018-01-22T05:22:13.624Z,10.77
2018-01-22T05:24:43.278Z,14.27
2018-01-22T05:27:12.152Z,13.30
2018-01-22T05:29:40.388Z,10.03
2018-01-22T05:32:08.664Z,11.13
2018-01-22T05:34:37.696Z,11.80
2018-01-22T05:37:07.306Z,10.87
2018-01-22T05:39:35.849Z,8.40
2018-01-22T05:42:04.464Z,9.30
2018-01-22T05:44:32.702Z,9.00
2018-01-22T05:47:00.959Z,13.90
2018-01-22T05:49:29.197Z,14.47
2018-01-22T05:51:57.442Z,10.10
2018-01-22T05:54:26.472Z,12.60
2018-01-22T05:56:55.483Z,9.77
2018-01-22T05:59:24.862Z,12.50
2018-01-22T06:01:53.544Z,10.80
2018-01-22T06:04:21.794Z,11.20
2018-01-22T06:06:51.548Z,9.80
2018-01-22T06:09:19.864Z,11.00
2018-01-22T06:11:49.458Z,9.10
2018-01-22T06:14:17.610Z,9.00
2018-01-22T06:16:45.868Z,9.73
2018-01-22T06:19:15.460Z,9.07
2018-01-22T06:21:43.568Z,11.80
2018-01-22T06:24:11.860Z,11.00
2018-01-22T06:26:40.092Z,11.30
2018-01-22T06:29:08.348Z,10.77
2018-01-22T06:31:38.352Z,11.70
2018-01-22T06:34:06.614Z,10.37
2018-01-22T06:36:34.908Z,8.87
2018-01-22T06:39:03.151Z,11.20
2018-01-22T06:41:31.380Z,10.83
2018-01-22T06:44:01.147Z,10.83
2018-01-22T06:46:29.388Z,10.47
2018-01-22T06:48:57.620Z,11.30
2018-01-22T06:51:27.265Z,12.90
2018-01-22T06:53:55.360Z,13.10
2018-01-22T06:56:24.365Z,12.90
2018-01-22T06:58:53.948Z,13.13
2018-01-22T07:01:23.625Z,15.90
2018-01-22T07:03:53.219Z,17.83
2018-01-22T07:06:22.486Z,15.80
2018-01-22T07:08:51.908Z,16.97
2018-01-22T07:11:20.154Z,16.50
2018-01-22T07:13:48.409Z,14.77
2018-01-22T07:16:17.451Z,13.97
2018-01-22T07:18:46.462Z,12.90
2018-01-22T07:21:16.048Z,13.27
2018-01-22T07:23:44.957Z,14.27
2018-01-22T07:26:13.195Z,17.20
2018-01-22T07:28:42.794Z,16.50
2018-01-22T07:31:11.696Z,16.40
2018-01-22T07:33:39.937Z,17.90
2018-01-22T07:36:08.210Z,16.40
2018-01-22T07:38:37.267Z,16.53
2018-01-22T07:41:05.514Z,17.70
2018-01-22T07:43:33.744Z,18.47
2018-01-22T07:46:02.008Z,16.90
2018-01-22T07:48:30.239Z,19.07
2018-01-22T07:50:58.473Z,22.07
2018-01-22T07:53:28.328Z,20.50
2018-01-22T07:55:56.560Z,22.60
2018-01-22T07:58:24.797Z,22.40
2018-01-22T08:00:53.090Z,23.83
2018-01-22T08:03:21.345Z,24.27
2018-01-22T08:05:49.615Z,23.77
2018-01-22T08:08:19.044Z,23.10
2018-01-22T08:10:48.661Z,21.97
2018-01-22T08:13:17.564Z,23.03
2018-01-22T08:15:46.986Z,23.93
2018-01-22T08:18:15.999Z,22.23
2018-01-22T08:20:44.228Z,22.63
2018-01-22T08:23:14.195Z,24.20
2018-01-22T08:25:43.458Z,27.27
2018-01-22T08:28:12.080Z,25.70
2018-01-22T08:30:40.340Z,25.87
2018-01-22T08:33:09.946Z,25.50
2018-01-22T08:35:38.069Z,25.73
2018-01-22T08:38:07.110Z,24.47
2018-01-22T08:40:36.126Z,24.63
2018-01-22T08:43:04.360Z,28.00
2018-01-22T08:45:32.640Z,26.73
2018-01-22T08:48:00.872Z,25.97
2018-01-22T08:50:29.118Z,27.13
2018-01-22T08:52:57.385Z,24.17
2018-01-22T08:55:25.616Z,25.40
2018-01-22T08:57:53.860Z,24.93
2018-01-22T09:00:22.904Z,24.90
2018-01-22T09:02:52.952Z,24.97
2018-01-22T09:05:21.197Z,24.87
2018-01-22T09:07:49.518Z,24.97
2018-01-22T09:10:17.778Z,25.20
2018-01-22T09:12:47.553Z,25.73
2018-01-22T09:15:15.888Z,28.17
2018-01-22T09:17:44.124Z,25.40
2018-01-22T09:20:12.418Z,27.23
2018-01-22T09:22:40.654Z,25.17
2018-01-22T09:25:08.892Z,26.87
2018-01-22T09:27:37.180Z,27.37
2018-01-22T09:30:06.989Z,27.43
2018-01-22T09:32:35.221Z,27.70
2018-01-22T09:35:03.455Z,25.23
2018-01-22T09:37:32.507Z,30.17
2018-01-22T09:40:00.735Z,26.97
2018-01-22T09:42:28.972Z,26.30
2018-01-22T09:44:58.745Z,27.37
2018-01-22T09:47:26.972Z,30.10
2018-01-22T09:49:55.207Z,28.80
2018-01-22T09:52:24.840Z,30.80
2018-01-22T09:54:53.368Z,28.90
2018-01-22T09:57:22.384Z,26.90
2018-01-22T09:59:51.800Z,26.37
2018-01-22T10:02:20.830Z,27.03
2018-01-22T10:04:49.859Z,24.80
2018-01-22T10:07:18.138Z,24.30
2018-01-22T10:09:47.743Z,22.03
2018-01-22T10:12:16.630Z,21.63
2018-01-22T10:14:50.964Z,22.23
2018-01-22T10:17:19.234Z,20.60
2018-01-22T10:19:48.617Z,22.07
2018-01-22T10:22:17.697Z,19.00
2018-01-22T10:24:46.702Z,19.47
2018-01-22T10:27:16.298Z,18.17
2018-01-22T10:29:45.571Z,18.60
2018-01-22T10:32:15.167Z,16.60
2018-01-22T10:34:43.280Z,18.30
2018-01-22T10:37:11.549Z,15.47
2018-01-22T10:39:39.788Z,14.77
2018-01-22T10:42:09.532Z,16.77
2018-01-22T10:44:38.579Z,15.87
2018-01-22T10:47:06.824Z,17.20
2018-01-22T10:49:36.444Z,16.40
2018-01-22T10:52:04.598Z,15.27
2018-01-22T10:54:32.853Z,14.57
2018-01-22T10:57:01.068Z,13.63
2018-01-22T10:59:29.367Z,13.40
2018-01-22T11:01:58.956Z,14.07
2018-01-22T11:04:27.464Z,13.43
2018-01-22T11:06:55.731Z,13.47
2018-01-22T11:09:24.743Z,12.57
2018-01-22T11:11:53.022Z,13.63
2018-01-22T11:14:21.293Z,12.57
2018-01-22T11:16:49.559Z,11.83
2018-01-22T11:19:17.814Z,13.07
2018-01-22T11:21:47.274Z,14.93
2018-01-22T11:24:15.517Z,12.10
2018-01-22T11:26:43.769Z,13.17
2018-01-22T11:29:12.084Z,12.13
2018-01-22T11:31:40.324Z,12.90
2018-01-22T11:34:09.908Z,12.10
2018-01-22T11:36:38.818Z,12.67
2018-01-22T11:39:07.072Z,10.97
2018-01-22T11:41:35.342Z,12.40
2018-01-22T11:44:04.400Z,10.20
2018-01-22T11:46:34.553Z,10.87
2018-01-22T11:49:04.264Z,10.30
2018-01-22T11:51:32.519Z,9.70
2018-01-22T11:54:00.756Z,9.70
2018-01-22T11:56:29.013Z,9.80
2018-01-22T11:58:58.774Z,8.57
2018-01-22T12:01:27.008Z,8.80
2018-01-22T12:03:55.292Z,9.43
2018-01-22T12:06:23.519Z,8.77
2018-01-22T12:08:51.765Z,9.00
2018-01-22T12:11:20.044Z,7.20
2018-01-22T12:13:49.632Z,9.43
2018-01-22T12:16:18.902Z,9.50
2018-01-22T12:18:48.706Z,9.43
2018-01-22T12:21:18.307Z,8.00
2018-01-22T12:23:46.831Z,8.90
2018-01-22T12:26:16.478Z,9.07
2018-01-22T12:28:45.372Z,9.40
2018-01-22T12:31:14.413Z,8.50
2018-01-22T12:33:42.687Z,7.60
2018-01-22T12:36:10.912Z,9.13
2018-01-22T12:38:39.154Z,6.70
2018-01-22T12:41:08.944Z,8.23
2018-01-22T12:43:37.172Z,7.00
2018-01-22T12:46:05.803Z,7.40
2018-01-22T12:48:35.226Z,7.87
2018-01-22T12:51:04.236Z,7.30
2018-01-22T12:53:33.622Z,7.30
2018-01-22T12:56:02.652Z,7.90
2018-01-22T12:58:32.391Z,7.70
2018-01-22T13:01:00.633Z,8.30
2018-01-22T13:03:30.047Z,7.23
2018-01-22T13:05:58.686Z,7.47
2018-01-22T13:08:26.921Z,7.30
2018-01-22T13:10:55.180Z,8.20
2018-01-22T13:13:24.179Z,7.10
2018-01-22T13:15:53.755Z,7.90
2018-01-22T13:18:22.287Z,8.83
2018-01-22T13:20:51.283Z,8.37
2018-01-22T13:23:19.541Z,8.83
2018-01-22T13:25:49.497Z,9.80
2018-01-22T13:28:18.882Z,8.80
2018-01-22T13:30:47.131Z,8.90
2018-01-22T13:33:15.448Z,8.73
2018-01-22T13:35:44.099Z,8.97
2018-01-22T13:38:12.344Z,8.87
2018-01-22T13:40:46.339Z,7.60
2018-01-22T13:43:14.592Z,7.13
2018-01-22T13:45:44.239Z,7.97
2018-01-22T13:48:13.150Z,7.80
2018-01-22T13:50:42.888Z,8.30
2018-01-22T13:53:11.880Z,9.00
2018-01-22T13:55:41.491Z,9.23
2018-01-22T13:58:10.364Z,7.50
2018-01-22T14:00:38.601Z,8.40
2018-01-22T14:03:06.860Z,7.50
2018-01-22T14:05:35.114Z,8.77
2018-01-22T14:08:03.356Z,8.13
2018-01-22T14:10:32.280Z,8.20
2018-01-22T14:13:01.290Z,9.20
2018-01-22T14:15:29.521Z,9.47
2018-01-22T14:17:57.815Z,8.97
2018-01-22T14:20:26.058Z,8.50
2018-01-22T14:22:54.292Z,8.40
2018-01-22T14:25:22.581Z,8.20
2018-01-22T14:27:51.588Z,7.20
2018-01-22T14:30:20.625Z,7.33
2018-01-22T14:32:50.240Z,7.90
2018-01-22T14:35:18.422Z,8.00
2018-01-22T14:37:48.178Z,8.10
2018-01-22T14:40:17.822Z,7.17
2018-01-22T14:42:46.334Z,8.50
2018-01-22T14:45:14.665Z,9.37
2018-01-22T14:47:43.686Z,8.00
2018-01-22T14:50:12.680Z,7.53
2018-01-22T14:52:41.675Z,6.67
2018-01-22T14:55:11.096Z,6.90
2018-01-22T14:57:39.320Z,8.33
2018-01-22T15:00:07.552Z,7.23
2018-01-22T15:02:35.846Z,8.30
2018-01-22T15:05:04.096Z,8.13
2018-01-22T15:07:32.320Z,6.53
2018-01-22T15:10:01.927Z,7.40
2018-01-22T15:12:31.536Z,7.40
2018-01-22T15:14:59.768Z,6.77
2018-01-22T15:17:29.380Z,7.40
2018-01-22T15:19:57.880Z,7.80
2018-01-22T15:22:26.112Z,6.93
2018-01-22T15:24:55.143Z,7.57
2018-01-22T15:27:24.154Z,7.93
2018-01-22T15:29:53.163Z,7.67
2018-01-22T15:32:21.444Z,10.03
2018-01-22T15:34:49.680Z,7.60
2018-01-22T15:37:19.077Z,8.10
2018-01-22T15:39:47.398Z,9.67
2018-01-22T15:42:17.020Z,7.50
2018-01-22T15:44:45.924Z,8.50
2018-01-22T15:47:14.197Z,8.67
2018-01-22T15:49:42.423Z,9.53
2018-01-22T15:52:12.004Z,10.07
2018-01-22T15:54:40.548Z,8.33
2018-01-22T15:57:10.138Z,9.60
2018-01-22T15:59:38.240Z,8.40
2018-01-22T16:02:07.852Z,8.60
2018-01-22T16:04:36.742Z,9.20
2018-01-22T16:07:06.480Z,10.43
2018-01-22T16:09:34.862Z,8.67
2018-01-22T16:12:03.091Z,9.10
2018-01-22T16:14:31.342Z,9.13
2018-01-22T16:16:59.620Z,7.93
2018-01-22T16:19:28.988Z,8.13
2018-01-22T16:21:57.234Z,7.07
2018-01-22T16:24:25.494Z,8.67
2018-01-22T16:26:53.726Z,7.33
2018-01-22T16:29:23.459Z,7.43
2018-01-22T16:31:52.003Z,9.30
2018-01-22T16:34:22.532Z,7.50
2018-01-22T16:36:51.524Z,8.60
2018-01-22T16:39:20.101Z,7.23
2018-01-22T16:41:49.450Z,7.80
2018-01-22T16:44:17.789Z,7.83
2018-01-22T16:46:51.848Z,7.67
2018-01-22T16:49:20.133Z,7.53
2018-01-22T16:51:49.168Z,7.63
2018-01-22T16:54:18.200Z,6.30
2018-01-22T16:56:46.439Z,7.30
2018-01-22T16:59:14.686Z,6.53
2018-01-22T17:01:43.728Z,7.57
2018-01-22T17:04:13.064Z,7.23
2018-01-22T17:06:42.650Z,7.80
2018-01-22T17:09:11.560Z,6.83
2018-01-22T17:11:39.788Z,7.33
2018-01-22T17:14:09.144Z,9.37
2018-01-22T17:16:38.767Z,7.27
2018-01-22T17:19:08.219Z,8.80
2018-01-22T17:21:37.671Z,7.43
2018-01-22T17:24:05.850Z,7.60
2018-01-22T17:26:34.073Z,7.40
2018-01-22T17:29:02.295Z,7.57
2018-01-22T17:31:30.597Z,8.80
2018-01-22T17:33:59.951Z,8.30
2018-01-22T17:36:28.180Z,8.80
2018-01-22T17:38:56.436Z,7.47
2018-01-22T17:41:25.536Z,8.33
2018-01-22T17:43:55.096Z,8.63
2018-01-22T17:46:24.246Z,9.00
2018-01-22T17:48:53.824Z,8.20
2018-01-22T17:51:22.738Z,9.23
2018-01-22T17:53:52.209Z,9.33
2018-01-22T17:56:20.847Z,8.20
2018-01-22T17:58:49.063Z,8.37
2018-01-22T18:01:17.324Z,9.30
2018-01-22T18:03:45.956Z,8.57
2018-01-22T18:06:16.101Z,9.40
2018-01-22T18:08:44.338Z,8.00
2018-01-22T18:11:14.068Z,7.70
2018-01-22T18:13:43.832Z,7.13
2018-01-22T18:16:12.828Z,10.83
2018-01-22T18:18:42.192Z,8.10
2018-01-22T18:21:10.468Z,8.47
2018-01-22T18:23:38.698Z,7.73
2018-01-22T18:26:06.985Z,7.93
2018-01-22T18:28:35.239Z,7.00
2018-01-22T18:31:03.523Z,8.30
2018-01-22T18:33:32.512Z,8.00
2018-01-22T18:36:01.946Z,8.53
2018-01-22T18:38:30.983Z,7.07
2018-01-22T18:41:00.542Z,8.50
2018-01-22T18:43:37.447Z,8.33
2018-01-22T18:46:07.028Z,8.67
2018-01-22T18:48:35.280Z,8.30
2018-01-22T18:51:03.544Z,8.50
2018-01-22T18:53:31.819Z,7.70
2018-01-22T18:56:00.122Z,7.53
2018-01-22T18:58:28.318Z,7.00
2018-01-22T19:00:56.592Z,9.23
2018-01-22T19:03:24.841Z,7.63
2018-01-22T19:05:54.572Z,7.40
2018-01-22T19:08:24.214Z,6.50
2018-01-22T19:10:53.679Z,8.10
2018-01-22T19:13:23.295Z,7.67
2018-01-22T19:15:51.527Z,8.60
2018-01-22T19:18:19.847Z,8.60
2018-01-22T19:20:48.835Z,8.80
2018-01-22T19:23:17.138Z,9.27
2018-01-22T19:25:45.448Z,9.70
2018-01-22T19:28:15.090Z,9.40
2018-01-22T19:30:43.224Z,9.33
2018-01-22T19:33:11.480Z,9.17
2018-01-22T19:35:40.141Z,9.70
2018-01-22T19:38:09.539Z,12.87
2018-01-22T19:40:37.780Z,9.60
2018-01-22T19:43:06.071Z,10.80
2018-01-22T19:45:35.689Z,8.80
2018-01-22T19:48:04.638Z,11.20
2018-01-22T19:50:33.255Z,10.40
2018-01-22T19:53:02.844Z,8.60
2018-01-22T19:55:30.984Z,10.70
2018-01-22T19:57:59.216Z,10.23
2018-01-22T20:00:27.439Z,9.20
2018-01-22T20:02:55.750Z,10.30
2018-01-22T20:05:23.960Z,10.30
2018-01-22T20:07:53.026Z,9.27
2018-01-22T20:10:21.299Z,10.00
2018-01-22T20:12:49.537Z,10.13
2018-01-22T20:15:19.154Z,11.37
2018-01-22T20:17:47.370Z,11.03
2018-01-22T20:20:15.652Z,8.90
2018-01-22T20:22:43.906Z,10.83
2018-01-22T20:25:12.155Z,10.97
2018-01-22T20:27:40.443Z,10.83
2018-01-22T20:30:10.015Z,10.70
2018-01-22T20:32:39.287Z,12.10
2018-01-22T20:35:08.913Z,10.83
2018-01-22T20:37:37.059Z,11.40
2018-01-22T20:40:07.436Z,10.70
2018-01-22T20:42:37.074Z,12.10
2018-01-22T20:45:06.582Z,11.13
2018-01-22T20:47:34.951Z,11.57
2018-01-22T20:50:04.591Z,12.03
2018-01-22T20:52:34.091Z,10.77
2018-01-22T20:55:03.659Z,14.70
2018-01-22T20:57:32.884Z,15.47
2018-01-22T21:00:01.177Z,11.00
2018-01-22T21:02:29.862Z,13.90
2018-01-22T21:04:59.451Z,12.33
2018-01-22T21:07:28.759Z,12.07
2018-01-22T21:09:58.202Z,12.37
2018-01-22T21:12:26.430Z,12.50
2018-01-22T21:14:54.712Z,11.27
2018-01-22T21:17:23.037Z,11.93
2018-01-22T21:19:52.667Z,13.10
2018-01-22T21:22:22.325Z,10.43
2018-01-22T21:24:51.391Z,11.80
2018-01-22T21:27:20.394Z,11.60
2018-01-22T21:29:49.989Z,11.50
2018-01-22T21:32:19.371Z,9.97
2018-01-22T21:34:49.273Z,11.80
2018-01-22T21:37:17.490Z,9.50
2018-01-22T21:39:45.801Z,10.60
2018-01-22T21:42:14.020Z,9.70
2018-01-22T21:44:43.453Z,9.40
2018-01-22T21:47:12.462Z,10.77
2018-01-22T21:49:41.456Z,9.57
2018-01-22T21:52:10.122Z,9.50
2018-01-22T21:54:38.403Z,9.20
2018-01-22T21:57:07.012Z,10.30
2018-01-22T21:59:36.817Z,9.93
2018-01-22T22:02:05.150Z,11.17
2018-01-22T22:04:34.816Z,9.90
2018-01-22T22:07:04.106Z,10.03
2018-01-22T22:09:32.383Z,11.67
2018-01-22T22:12:01.960Z,10.50
2018-01-22T22:14:30.496Z,10.33
2018-01-22T22:16:58.723Z,9.60
2018-01-22T22:19:26.989Z,11.00
2018-01-22T22:21:55.302Z,23.47
2018-01-22T22:24:23.575Z,11.83
2018-01-22T22:26:51.775Z,9.67
2018-01-22T22:29:20.122Z,10.00
2018-01-22T22:31:49.859Z,11.07
2018-01-22T22:34:19.519Z,14.33
2018-01-22T22:36:48.101Z,12.73
2018-01-22T22:39:17.705Z,11.77
2018-01-22T22:41:45.820Z,16.50
2018-01-22T22:44:15.456Z,13.43
2018-01-22T22:46:43.975Z,10.33
2018-01-22T22:49:12.260Z,12.70
2018-01-22T22:51:40.560Z,11.93
2018-01-22T22:54:10.143Z,18.40
2018-01-22T22:56:39.770Z,15.50
2018-01-22T22:59:09.403Z,11.07
2018-01-22T23:01:37.519Z,13.80
2018-01-22T23:04:05.891Z,24.87
2018-01-22T23:06:34.985Z,17.87
2018-01-22T23:09:03.204Z,10.20
2018-01-22T23:11:32.200Z,11.93
2018-01-22T23:14:00.468Z,13.23
2018-01-22T23:16:29.854Z,12.07
2018-01-22T23:18:58.476Z,10.53
2018-01-22T23:21:28.224Z,11.20
2018-01-22T23:23:57.588Z,12.23
2018-01-22T23:26:25.838Z,14.90
2018-01-22T23:28:54.126Z,16.60
2018-01-22T23:31:22.348Z,12.80
2018-01-22T23:33:50.595Z,13.17
2018-01-22T23:36:18.882Z,13.73
2018-01-22T23:38:48.271Z,12.70
2018-01-22T23:41:16.515Z,10.97
2018-01-22T23:43:46.135Z,12.00
2018-01-22T23:46:14.912Z,12.47
2018-01-22T23:48:44.502Z,19.47
2018-01-22T23:51:14.010Z,22.63
2018-01-22T23:53:43.499Z,13.13
2018-01-22T23:56:12.966Z,9.43
2018-01-22T23:58:42.259Z,10.50
